Time;durP1;ratioP1;P1;durP2;ratioP2;P2;SDS_P1;SDS_P2;PMS_P1;PMS_P2;Temp;Humidity;BMP_temperature;BMP_pressure;BME280_temperature;BME280_humidity;BME280_pressure;Samples;Min_cycle;Max_cycle;Signal;HPM_P1;HPM_P2
2023/07/05 08:57:02;;;;;;;3.08;2.40;;;;;;;15.02;100.00;100537.41;5069311;28;20382;-66
2023/07/05 08:59:49;;;;;;;9.98;3.78;;;;;;;15.17;100.00;100539.41;5075327;28;20111;-68
2023/07/05 09:02:22;;;;;;;8.43;2.70;;;;;;;15.25;100.00;100549.81;5080777;28;20035;-67
2023/07/05 09:04:49;;;;;;;10.45;2.95;;;;;;;15.42;100.00;100546.91;5070261;28;20081;-72
2023/07/05 09:07:24;;;;;;;6.50;3.20;;;;;;;15.52;100.00;100557.03;5088334;28;20028;-67
2023/07/05 09:10:04;;;;;;;5.75;3.00;;;;;;;15.57;100.00;100565.25;5066949;28;20032;-67
2023/07/05 09:12:46;;;;;;;12.27;3.63;;;;;;;15.66;100.00;100580.03;5066891;28;20021;-66
2023/07/05 09:15:23;;;;;;;;;;;;;;;15.80;100.00;100577.66;5049835;28;20422;-67
2023/07/05 09:18:16;;;;;;;8.50;3.30;;;;;;;15.84;100.00;100572.50;5059617;28;19973;-68
2023/07/05 09:20:53;;;;;;;11.15;3.00;;;;;;;15.82;100.00;100594.59;5049001;28;20033;-67
2023/07/05 09:23:25;;;;;;;8.73;3.10;;;;;;;15.77;100.00;100584.47;5072633;28;20049;-67
2023/07/05 09:25:59;;;;;;;8.23;3.20;;;;;;;15.80;100.00;100593.22;5063721;28;20660;-67
2023/07/05 09:28:30;;;;;;;8.73;2.75;;;;;;;15.96;100.00;100611.28;5069421;28;20488;-69
2023/07/05 09:30:57;;;;;;;;;;;;;;;16.13;100.00;100597.44;5069538;28;20082;-66
2023/07/05 09:33:32;;;;;;;7.38;2.75;;;;;;;16.23;96.51;100616.56;5057916;28;19916;-71
2023/07/05 09:36:03;;;;;;;7.53;2.80;;;;;;;16.34;89.23;100611.97;5051612;28;20444;-70
2023/07/05 09:38:34;;;;;;;7.38;2.83;;;;;;;16.54;90.27;100602.97;5053703;28;20029;-69
2023/07/05 09:41:13;;;;;;;6.65;2.65;;;;;;;16.67;83.02;100626.22;5055075;28;20108;-67
2023/07/05 09:43:39;;;;;;;7.30;2.30;;;;;;;16.60;71.30;100610.09;5068251;28;20035;-67
2023/07/05 09:46:26;;;;;;;8.15;2.50;;;;;;;16.62;76.63;100628.94;5063656;28;20033;-67
2023/07/05 09:48:54;;;;;;;8.80;2.17;;;;;;;16.67;76.28;100653.53;5049360;28;20080;-66
2023/07/05 09:51:21;;;;;;;7.82;1.83;;;;;;;16.78;73.24;100652.44;5052878;28;20036;-66
2023/07/05 09:53:52;;;;;;;12.10;2.38;;;;;;;16.78;69.17;100633.31;5058383;28;20029;-66
2023/07/05 09:56:29;;;;;;;8.15;2.15;;;;;;;16.81;68.88;100660.09;5068869;28;20484;-67
2023/07/05 09:59:12;;;;;;;15.75;2.50;;;;;;;16.90;68.07;100662.34;5068795;28;20021;-68
2023/07/05 10:01:41;;;;;;;7.22;2.30;;;;;;;16.84;67.05;100658.75;5056359;28;20068;-67
2023/07/05 10:04:07;;;;;;;5.95;2.10;;;;;;;16.82;67.01;100669.97;5057702;28;20025;-67
2023/07/05 10:06:37;;;;;;;8.13;2.25;;;;;;;16.92;64.29;100665.63;5053862;28;20021;-66
2023/07/05 10:09:15;;;;;;;8.20;2.45;;;;;;;16.94;63.38;100682.56;5038772;28;20030;-72
2023/07/05 10:11:56;;;;;;;6.70;1.92;;;;;;;16.98;64.27;100687.25;5033919;28;20139;-66
2023/07/05 10:14:29;;;;;;;7.75;2.10;;;;;;;17.10;64.11;100700.63;5032940;28;20029;-66
2023/07/05 10:17:05;;;;;;;6.28;1.92;;;;;;;17.24;61.88;100683.66;5035096;28;20376;-70
2023/07/05 10:19:40;;;;;;;10.30;2.08;;;;;;;17.22;62.77;100692.16;5036549;28;20447;-65
2023/07/05 10:22:23;;;;;;;9.82;2.22;;;;;;;17.32;64.17;100707.75;5053311;28;20025;-66
2023/07/05 10:24:51;;;;;;;7.30;1.90;;;;;;;17.43;61.63;100703.91;5053248;28;20068;-67
2023/07/05 10:27:19;;;;;;;3.65;1.77;;;;;;;17.50;61.67;100707.19;5052838;28;20101;-72
2023/07/05 10:29:47;;;;;;;6.93;1.92;;;;;;;17.59;59.07;100706.63;5035107;28;20071;-67
2023/07/05 10:32:18;;;;;;;7.55;1.92;;;;;;;17.63;62.67;100718.66;5059877;28;20052;-65
2023/07/05 10:34:47;;;;;;;5.60;1.80;;;;;;;17.61;59.46;100720.88;5036964;28;20079;-65
2023/07/05 10:37:34;;;;;;;4.30;1.80;;;;;;;17.73;62.31;100746.03;5052981;28;20033;-65
2023/07/05 10:40:09;;;;;;;6.05;2.03;;;;;;;17.60;58.94;100735.63;5048799;28;20127;-66
2023/07/05 10:42:48;;;;;;;5.85;1.83;;;;;;;17.58;59.82;100737.84;5054279;28;20033;-65
2023/07/05 10:45:16;;;;;;;6.75;1.77;;;;;;;17.60;60.66;100749.31;5047972;28;20072;-66
2023/07/05 10:47:45;;;;;;;5.10;1.77;;;;;;;17.75;59.49;100749.28;5033918;28;20104;-66
2023/07/05 10:50:13;;;;;;;9.25;2.08;;;;;;;17.70;54.97;100743.84;5034137;28;20059;-66
2023/07/05 10:53:04;;;;;;;4.03;1.70;;;;;;;17.65;54.16;100746.59;5033892;28;20060;-65
2023/07/05 10:55:52;;;;;;;5.30;1.70;;;;;;;17.65;55.93;100761.09;5042946;28;20522;-66
2023/07/05 10:58:20;;;;;;;5.20;1.45;;;;;;;17.77;56.11;100758.06;5041318;28;20125;-66
2023/07/05 11:01:04;;;;;;;4.55;1.70;;;;;;;17.86;54.85;100761.03;5040937;28;20027;-66
2023/07/05 11:03:53;;;;;;;5.82;1.92;;;;;;;18.12;55.86;100752.84;5044370;28;20033;-66
2023/07/05 11:06:19;;;;;;;4.25;1.80;;;;;;;18.11;54.35;100754.72;5039929;28;20036;-67
2023/07/05 11:08:45;;;;;;;8.98;1.77;;;;;;;18.23;55.32;100765.38;5043086;28;20025;-67
2023/07/05 11:11:20;;;;;;;4.72;1.90;;;;;;;18.07;54.55;100772.81;5052625;28;20028;-66
2023/07/05 11:13:48;;;;;;;5.68;1.58;;;;;;;18.08;54.42;100773.66;5040475;28;20026;-66
2023/07/05 11:16:20;;;;;;;6.82;1.73;;;;;;;18.26;54.46;100800.44;5033640;28;20026;-67
2023/07/05 11:18:47;;;;;;;8.85;1.85;;;;;;;18.27;52.33;100766.47;5032432;28;20029;-66
2023/07/05 11:21:46;;;;;;;5.13;2.00;;;;;;;18.38;53.09;100773.53;5033658;28;20025;-67
2023/07/05 11:24:32;;;;;;;8.68;1.75;;;;;;;18.38;54.01;100786.44;5041837;28;20435;-66
2023/07/05 11:26:59;;;;;;;4.50;1.80;;;;;;;18.36;53.37;100785.91;5052095;28;20052;-67
2023/07/05 11:29:28;;;;;;;10.63;2.15;;;;;;;18.43;53.30;100791.88;5052203;28;20086;-67
2023/07/05 11:31:53;;;;;;;6.72;1.58;;;;;;;18.41;52.79;100788.63;5053375;28;20492;-67
2023/07/05 11:34:21;;;;;;;6.00;1.73;;;;;;;18.63;54.77;100806.59;5053234;28;20052;-67
2023/07/05 11:36:51;;;;;;;8.48;1.80;;;;;;;18.76;52.30;100808.75;5051840;28;20295;-66
2023/07/05 11:39:35;;;;;;;5.53;1.90;;;;;;;18.83;52.83;100794.75;5053518;28;20100;-67
2023/07/05 11:42:12;;;;;;;6.03;1.90;;;;;;;18.91;53.25;100796.94;5053248;28;20108;-66
2023/07/05 11:44:42;;;;;;;5.22;1.80;;;;;;;18.83;51.54;100795.56;5044586;28;20033;-67
2023/07/05 11:47:33;;;;;;;8.10;1.95;;;;;;;19.03;53.11;100804.81;5053307;28;20036;-67
2023/07/05 11:50:06;;;;;;;7.10;1.50;;;;;;;19.18;50.68;100820.38;5031809;28;20033;-67
2023/07/05 11:52:35;;;;;;;4.18;1.50;;;;;;;19.09;49.61;100815.47;5031962;28;20156;-67
2023/07/05 11:55:25;;;;;;;6.40;1.75;;;;;;;19.12;49.19;100825.06;5033091;28;20080;-67
2023/07/05 11:58:04;;;;;;;6.40;1.55;;;;;;;19.27;49.56;100829.63;5037219;28;20055;-66
2023/07/05 12:00:42;;;;;;;7.07;1.80;;;;;;;19.48;49.40;100824.81;5044060;28;20361;-68
2023/07/05 12:03:18;;;;;;;4.25;1.80;;;;;;;19.43;49.43;100819.34;5049276;28;20029;-71
2023/07/05 12:05:46;;;;;;;5.70;1.92;;;;;;;19.28;46.96;100843.06;5040126;28;20028;-70
2023/07/05 12:08:18;;;;;;;7.18;1.80;;;;;;;19.28;48.36;100837.56;5051648;28;20037;-71
2023/07/05 12:10:58;;;;;;;8.20;2.40;;;;;;;19.17;49.41;100844.22;5040637;28;20032;-67
2023/07/05 12:13:26;;;;;;;6.93;1.63;;;;;;;19.17;47.77;100835.97;5036633;28;20041;-72
2023/07/05 12:15:53;;;;;;;6.47;2.05;;;;;;;19.29;48.54;100839.22;5053833;28;20298;-73
2023/07/05 12:18:20;;;;;;;6.45;1.80;;;;;;;19.39;47.24;100835.59;5039422;28;20033;-73
2023/07/05 12:20:54;;;;;;;7.68;1.67;;;;;;;19.55;47.20;100833.56;5032855;28;20112;-71
2023/07/05 12:23:22;;;;;;;7.43;1.85;;;;;;;19.74;48.16;100850.16;5031366;28;20083;-70
2023/07/05 12:25:51;;;;;;;5.18;1.92;;;;;;;19.58;47.44;100846.72;5046539;28;20033;-68
2023/07/05 12:28:21;;;;;;;5.25;1.42;;;;;;;19.66;46.89;100857.06;5052698;28;20033;-68
2023/07/05 12:30:47;;;;;;;3.65;1.42;;;;;;;19.59;44.39;100855.75;5037881;28;20087;-72
2023/07/05 12:33:22;;;;;;;4.60;1.40;;;;;;;19.75;45.65;100856.47;5031475;28;20030;-73
2023/07/05 12:36:03;;;;;;;2.63;1.30;;;;;;;19.84;44.64;100857.53;5032329;28;20033;-66
2023/07/05 12:38:29;;;;;;;3.90;1.40;;;;;;;19.97;43.07;100854.13;5038581;28;20434;-69
2023/07/05 12:40:55;;;;;;;3.22;1.25;;;;;;;20.11;43.22;100861.66;5052569;28;20053;-69
2023/07/05 12:43:28;;;;;;;5.38;1.60;;;;;;;20.20;42.67;100870.94;5050560;28;20423;-69
2023/07/05 12:46:09;;;;;;;4.50;1.75;;;;;;;20.35;43.83;100875.44;5035268;28;20029;-75
2023/07/05 12:48:43;;;;;;;3.22;1.45;;;;;;;20.41;42.64;100876.22;5037975;28;20057;-73
2023/07/05 12:51:19;;;;;;;3.60;1.80;;;;;;;20.53;42.01;100893.13;5034508;28;20116;-73
2023/07/05 12:53:52;;;;;;;5.40;1.55;;;;;;;20.62;43.28;100877.66;5031071;28;20062;-69
2023/07/05 12:56:29;;;;;;;3.92;1.45;;;;;;;20.64;42.13;100883.69;5030544;28;20149;-71
2023/07/05 12:58:59;;;;;;;6.13;1.50;;;;;;;20.54;42.46;100864.53;5030921;28;20036;-74
2023/07/05 13:01:35;;;;;;;1.75;1.30;;;;;;;20.38;42.86;100877.63;5040275;28;20032;-75
2023/07/05 13:04:07;;;;;;;2.78;1.70;;;;;;;20.26;43.49;100890.94;5050807;28;20021;-69
2023/07/05 13:06:34;;;;;;;5.03;1.50;;;;;;;20.14;43.09;100888.56;5044394;28;20021;-69
2023/07/05 13:09:00;;;;;;;5.55;1.90;;;;;;;20.08;44.58;100887.81;5043133;28;20037;-69
2023/07/05 13:11:26;;;;;;;5.82;1.75;;;;;;;;;;5041015;28;20034;-70
2023/07/05 13:14:07;;;;;;;2.92;1.70;;;;;;;20.27;44.40;100887.91;5033688;28;20025;-70
2023/07/05 13:16:56;;;;;;;4.75;1.65;;;;;;;20.57;43.40;100891.44;5036353;28;20460;-66
2023/07/05 13:19:33;;;;;;;6.22;1.73;;;;;;;20.60;43.20;100892.81;5041731;28;20061;-71
2023/07/05 13:22:14;;;;;;;6.57;1.77;;;;;;;20.56;43.97;100898.03;5040773;28;20771;-66
2023/07/05 13:24:45;;;;;;;5.78;1.70;;;;;;;20.75;42.66;100908.34;5048826;28;20033;-72
2023/07/05 13:27:26;;;;;;;5.40;1.98;;;;;;;20.63;42.06;100906.78;5052055;28;20456;-66
2023/07/05 13:29:52;;;;;;;3.95;1.67;;;;;;;20.65;40.79;100901.84;5032348;28;20041;-65
2023/07/05 13:32:38;;;;;;;7.82;1.77;;;;;;;20.58;42.66;100914.25;5040990;28;20056;-69
2023/07/05 13:35:05;;;;;;;5.88;1.67;;;;;;;20.50;41.77;100907.47;5040161;28;20029;-68
2023/07/05 13:37:31;;;;;;;7.22;1.63;;;;;;;20.45;41.42;100915.75;5033516;28;20087;-67
2023/07/05 13:40:09;;;;;;;4.93;1.73;;;;;;;20.65;42.31;100918.34;5045160;28;20029;-76
2023/07/05 13:42:41;;;;;;;12.02;1.60;;;;;;;20.70;41.62;100918.28;5053663;28;20040;-74
2023/07/05 13:45:18;;;;;;;5.88;1.60;;;;;;;20.82;41.40;100912.38;5055861;28;20029;-68
2023/07/05 13:47:44;;;;;;;2.83;1.65;;;;;;;20.96;41.29;100918.00;5056474;28;20079;-69
2023/07/05 13:50:12;;;;;;;5.82;1.70;;;;;;;21.10;41.37;100928.28;5045750;28;20072;-69
2023/07/05 13:52:38;;;;;;;4.60;1.63;;;;;;;21.27;41.04;100925.84;5041410;28;20533;-68
2023/07/05 13:55:04;;;;;;;7.95;1.90;;;;;;;21.51;41.43;100928.56;5035403;28;20103;-67
2023/07/05 13:57:34;;;;;;;7.20;1.83;;;;;;;21.40;41.07;100929.81;5047202;28;20111;-71
2023/07/05 13:59:59;;;;;;;6.95;1.90;;;;;;;21.53;41.95;100939.28;5043673;28;20489;-66
2023/07/05 14:02:31;;;;;;;4.63;1.85;;;;;;;21.58;42.45;100942.00;5033438;28;20033;-65
2023/07/05 14:04:58;;;;;;;5.72;1.98;;;;;;;21.36;41.83;100940.63;5035045;28;20370;-64
2023/07/05 14:07:24;;;;;;;5.38;1.92;;;;;;;21.36;41.71;100934.28;5047589;28;20041;-66
2023/07/05 14:09:49;;;;;;;6.10;2.00;;;;;;;21.40;41.61;100946.34;5046858;28;20033;-68
2023/07/05 14:12:17;;;;;;;4.50;2.00;;;;;;;21.37;40.78;100946.94;5048882;28;20083;-67
2023/07/05 14:14:43;;;;;;;3.92;1.90;;;;;;;21.58;41.85;100936.47;5054113;28;20029;-66
2023/07/05 14:17:22;;;;;;;6.05;1.90;;;;;;;21.55;41.66;100942.59;5048124;28;20040;-66
2023/07/05 14:19:49;;;;;;;2.72;1.85;;;;;;;21.55;41.20;100953.59;5054972;28;20029;-66
2023/07/05 14:22:20;;;;;;;7.85;2.10;;;;;;;21.75;42.66;100947.78;5061126;28;20044;-65
2023/07/05 14:24:48;;;;;;;6.45;2.28;;;;;;;21.90;41.90;100951.44;5056653;28;20033;-65
2023/07/05 14:27:24;;;;;;;6.40;1.88;;;;;;;22.02;42.57;100960.06;5037232;28;20029;-67
2023/07/05 14:29:52;;;;;;;6.82;1.60;;;;;;;21.87;42.00;100963.06;5048474;28;20029;-65
2023/07/05 14:32:18;;;;;;;5.82;1.92;;;;;;;21.67;41.25;100958.66;5035042;28;20041;-65
2023/07/05 14:34:43;;;;;;;5.50;2.10;;;;;;;21.68;41.26;100954.78;5033394;28;20135;-64
2023/07/05 14:37:10;;;;;;;5.43;1.83;;;;;;;21.84;41.61;100955.38;5034970;28;20025;-68
2023/07/05 14:39:35;;;;;;;3.67;1.80;;;;;;;21.94;40.78;100960.75;5040899;28;20029;-69
2023/07/05 14:42:02;;;;;;;5.65;1.65;;;;;;;22.06;41.50;100955.59;5052299;28;20384;-68
2023/07/05 14:44:27;;;;;;;4.38;1.80;;;;;;;22.13;41.85;100964.31;5035048;28;20120;-67
2023/07/05 14:46:53;;;;;;;3.13;1.80;;;;;;;21.92;41.25;100961.03;5036788;28;20048;-65
2023/07/05 14:49:18;;;;;;;7.72;2.28;;;;;;;22.12;41.44;100959.91;5045295;28;20026;-67
2023/07/05 14:51:44;;;;;;;4.57;2.30;;;;;;;22.20;41.11;100969.41;5038247;28;20198;-66
2023/07/05 14:54:10;;;;;;;7.45;1.98;;;;;;;22.05;39.50;100953.94;5034387;28;20025;-68
2023/07/05 14:56:40;;;;;;;6.65;2.00;;;;;;;22.19;40.67;100966.97;5049055;28;20088;-68
2023/07/05 14:59:06;;;;;;;4.28;2.03;;;;;;;22.34;40.34;100963.97;5052256;28;20030;-68
2023/07/05 15:01:32;;;;;;;3.95;1.95;;;;;;;22.41;40.18;100964.41;5046850;28;20033;-67
2023/07/05 15:03:59;;;;;;;5.43;1.88;;;;;;;22.54;39.68;100967.50;5049529;28;20044;-66
2023/07/05 15:06:25;;;;;;;2.75;1.60;;;;;;;22.44;39.41;100974.03;5037489;28;20057;-67
2023/07/05 15:08:51;;;;;;;5.70;1.70;;;;;;;22.38;39.12;100976.03;5033000;28;20112;-67
2023/07/05 15:11:17;;;;;;;4.25;1.90;;;;;;;22.49;39.86;100968.41;5038682;28;20140;-65
2023/07/05 15:13:45;;;;;;;2.90;2.15;;;;;;;22.34;40.06;100972.25;5043915;28;20048;-66
2023/07/05 15:16:22;;;;;;;4.57;1.70;;;;;;;22.40;40.27;100984.81;5059034;28;20060;-66
2023/07/05 15:18:48;;;;;;;5.78;2.00;;;;;;;22.61;39.30;100981.72;5033970;28;20146;-67
2023/07/05 15:21:21;;;;;;;3.95;1.80;;;;;;;22.89;39.99;100984.50;5045191;28;20040;-66
2023/07/05 15:23:53;;;;;;;3.65;1.95;;;;;;;23.04;39.87;100987.00;5032960;28;20091;-68
2023/07/05 15:26:21;;;;;;;4.82;1.80;;;;;;;23.20;38.80;100983.94;5049218;28;20464;-67
2023/07/05 15:28:46;;;;;;;4.88;1.88;;;;;;;23.23;39.32;100999.91;5040552;28;20041;-71
2023/07/05 15:31:13;;;;;;;2.90;1.52;;;;;;;23.41;38.36;100998.97;5057057;28;20029;-71
2023/07/05 15:33:38;;;;;;;5.35;1.80;;;;;;;23.30;38.41;100992.03;5045103;28;20404;-69
2023/07/05 15:36:04;;;;;;;4.90;1.67;;;;;;;23.33;37.50;100996.94;5053728;28;20032;-72
2023/07/05 15:38:30;;;;;;;6.57;1.80;;;;;;;23.42;38.08;101002.56;5034945;28;20037;-71
2023/07/05 15:41:01;;;;;;;2.85;1.70;;;;;;;23.39;37.41;101000.41;5033517;28;20025;-72
2023/07/05 15:43:26;;;;;;;2.78;1.55;;;;;;;23.40;38.13;101004.78;5039257;28;20108;-70
2023/07/05 15:45:51;;;;;;;7.30;1.95;;;;;;;23.45;37.19;101002.75;5051076;28;20625;-72
2023/07/05 15:48:17;;;;;;;6.15;1.70;;;;;;;23.45;38.40;101008.28;5033411;28;20033;-73
2023/07/05 15:50:42;;;;;;;4.50;1.75;;;;;;;23.84;37.73;101009.63;5040996;28;20045;-67
2023/07/05 15:53:09;;;;;;;4.38;1.77;;;;;;;23.88;37.91;101009.84;5053434;28;20064;-69
2023/07/05 15:55:35;;;;;;;2.35;1.40;;;;;;;24.29;36.60;101016.38;5052145;28;20041;-68
2023/07/05 15:58:05;;;;;;;4.43;1.35;;;;;;;24.68;36.71;101018.44;5052853;28;20647;-69
2023/07/05 16:00:36;;;;;;;4.63;1.50;;;;;;;24.33;36.55;101011.84;5049577;28;20033;-69
2023/07/05 16:03:03;;;;;;;3.50;1.60;;;;;;;24.14;37.19;101012.00;5052735;28;20461;-69
2023/07/05 16:05:30;;;;;;;3.92;1.80;;;;;;;24.20;36.92;101014.38;5051082;28;20119;-69
2023/07/05 16:07:55;;;;;;;4.05;1.80;;;;;;;24.11;37.09;101012.63;5043910;28;20041;-66
